Sonora, Ohio
Current Conditions -  °F | °C
As of 8:53 AM on Thursday 23 Oct 2014 (Local Time) from KZZV Reporting Station
Few Clouds Few Clouds  
Wind Chill: 41°   Ceiling: Unl
Heat Index: 44°   Visibility: 8mi
Dew Point: 41°   Wind: 6mph
Humidity: 89%   Direction: 320°NW
Pressure: 30.22"   Gusts: NA
Location:  39.9489°N, 82.0572°W
Report Text: KZZV 231253Z AUTO 32005KT 8SM FEW013 07/05 A3022 RMK AO2 SLP235 T00670050
Loading
Personal Weather Stations






























Interactive Weather Map
Tropical Storm Tracking
New forecast layout! Learn more

10-Day Weather Forecast

Advertisements
Track Severe Weather on mobile